sensor_id;sensor_type;location;lat;lon;timestamp;P1;durP1;ratioP1;P2;durP2;ratioP2
58310;SDS011;45001;52.218;5.154;2022-07-23T00:01:02;2.33;;;0.90;;
58310;SDS011;45001;52.218;5.154;2022-07-23T00:03:27;2.67;;;0.80;;
58310;SDS011;45001;52.218;5.154;2022-07-23T00:05:52;1.45;;;0.80;;
58310;SDS011;45001;52.218;5.154;2022-07-23T00:08:18;2.20;;;0.80;;
58310;SDS011;45001;52.218;5.154;2022-07-23T00:10:43;1.60;;;0.82;;
58310;SDS011;45001;52.218;5.154;2022-07-23T00:13:08;1.75;;;0.80;;
58310;SDS011;45001;52.218;5.154;2022-07-23T00:15:34;2.53;;;0.70;;
58310;SDS011;45001;52.218;5.154;2022-07-23T00:17:59;2.55;;;0.80;;
58310;SDS011;45001;52.218;5.154;2022-07-23T00:20:24;1.17;;;0.80;;
58310;SDS011;45001;52.218;5.154;2022-07-23T00:22:50;1.88;;;0.70;;
58310;SDS011;45001;52.218;5.154;2022-07-23T00:25:20;1.55;;;0.88;;
58310;SDS011;45001;52.218;5.154;2022-07-23T00:27:46;1.58;;;0.70;;
58310;SDS011;45001;52.218;5.154;2022-07-23T00:30:13;0.93;;;0.70;;
58310;SDS011;45001;52.218;5.154;2022-07-23T00:32:47;1.67;;;0.70;;
58310;SDS011;45001;52.218;5.154;2022-07-23T00:35:12;1.02;;;0.80;;
58310;SDS011;45001;52.218;5.154;2022-07-23T00:37:38;1.65;;;0.77;;
58310;SDS011;45001;52.218;5.154;2022-07-23T00:40:03;1.85;;;0.90;;
58310;SDS011;45001;52.218;5.154;2022-07-23T00:42:30;1.50;;;0.80;;
58310;SDS011;45001;52.218;5.154;2022-07-23T00:44:56;1.75;;;0.70;;
58310;SDS011;45001;52.218;5.154;2022-07-23T00:47:21;1.55;;;0.73;;
58310;SDS011;45001;52.218;5.154;2022-07-23T00:49:46;1.30;;;0.70;;
58310;SDS011;45001;52.218;5.154;2022-07-23T00:52:12;1.30;;;0.70;;
58310;SDS011;45001;52.218;5.154;2022-07-23T00:54:37;1.38;;;0.63;;
58310;SDS011;45001;52.218;5.154;2022-07-23T00:57:03;1.23;;;0.60;;
58310;SDS011;45001;52.218;5.154;2022-07-23T00:59:29;1.50;;;0.90;;
58310;SDS011;45001;52.218;5.154;2022-07-23T01:01:54;1.00;;;0.70;;
58310;SDS011;45001;52.218;5.154;2022-07-23T01:04:19;1.45;;;0.70;;
58310;SDS011;45001;52.218;5.154;2022-07-23T01:06:45;1.55;;;0.80;;
58310;SDS011;45001;52.218;5.154;2022-07-23T01:09:10;1.88;;;0.80;;
58310;SDS011;45001;52.218;5.154;2022-07-23T01:11:36;1.48;;;0.75;;
58310;SDS011;45001;52.218;5.154;2022-07-23T01:14:14;1.10;;;0.70;;
58310;SDS011;45001;52.218;5.154;2022-07-23T01:16:41;1.67;;;0.70;;
58310;SDS011;45001;52.218;5.154;2022-07-23T01:19:08;1.30;;;0.70;;
58310;SDS011;45001;52.218;5.154;2022-07-23T01:21:38;2.15;;;0.77;;
58310;SDS011;45001;52.218;5.154;2022-07-23T01:24:05;1.42;;;0.77;;
58310;SDS011;45001;52.218;5.154;2022-07-23T01:26:31;2.03;;;0.82;;
58310;SDS011;45001;52.218;5.154;2022-07-23T01:28:56;1.30;;;0.70;;
58310;SDS011;45001;52.218;5.154;2022-07-23T01:31:22;1.30;;;0.70;;
58310;SDS011;45001;52.218;5.154;2022-07-23T01:33:47;1.20;;;0.65;;
58310;SDS011;45001;52.218;5.154;2022-07-23T01:36:13;1.52;;;0.80;;
58310;SDS011;45001;52.218;5.154;2022-07-23T01:38:39;1.65;;;0.82;;
58310;SDS011;45001;52.218;5.154;2022-07-23T01:41:04;2.35;;;0.70;;
58310;SDS011;45001;52.218;5.154;2022-07-23T01:43:30;1.73;;;0.68;;
58310;SDS011;45001;52.218;5.154;2022-07-23T01:45:55;0.80;;;0.60;;
58310;SDS011;45001;52.218;5.154;2022-07-23T01:48:21;2.88;;;0.80;;
58310;SDS011;45001;52.218;5.154;2022-07-23T01:50:46;1.40;;;0.90;;
58310;SDS011;45001;52.218;5.154;2022-07-23T01:53:13;1.05;;;0.70;;
58310;SDS011;45001;52.218;5.154;2022-07-23T01:55:39;1.83;;;0.75;;
58310;SDS011;45001;52.218;5.154;2022-07-23T01:58:04;2.03;;;0.90;;
58310;SDS011;45001;52.218;5.154;2022-07-23T02:00:30;2.50;;;0.70;;
58310;SDS011;45001;52.218;5.154;2022-07-23T02:02:56;1.40;;;0.80;;
58310;SDS011;45001;52.218;5.154;2022-07-23T02:05:23;1.02;;;0.70;;
58310;SDS011;45001;52.218;5.154;2022-07-23T02:07:49;2.70;;;0.80;;
58310;SDS011;45001;52.218;5.154;2022-07-23T02:10:14;1.10;;;0.70;;
58310;SDS011;45001;52.218;5.154;2022-07-23T02:12:39;1.45;;;0.82;;
58310;SDS011;45001;52.218;5.154;2022-07-23T02:15:05;1.85;;;0.80;;
58310;SDS011;45001;52.218;5.154;2022-07-23T02:17:31;1.67;;;0.90;;
58310;SDS011;45001;52.218;5.154;2022-07-23T02:19:57;2.22;;;1.00;;
58310;SDS011;45001;52.218;5.154;2022-07-23T02:22:22;1.40;;;0.60;;
58310;SDS011;45001;52.218;5.154;2022-07-23T02:24:48;1.35;;;0.80;;
58310;SDS011;45001;52.218;5.154;2022-07-23T02:27:13;1.17;;;0.70;;
58310;SDS011;45001;52.218;5.154;2022-07-23T02:29:39;1.10;;;0.77;;
58310;SDS011;45001;52.218;5.154;2022-07-23T02:32:04;1.58;;;0.85;;
58310;SDS011;45001;52.218;5.154;2022-07-23T02:34:29;3.28;;;1.10;;
58310;SDS011;45001;52.218;5.154;2022-07-23T02:36:55;1.30;;;0.80;;
58310;SDS011;45001;52.218;5.154;2022-07-23T02:39:20;1.30;;;0.80;;
58310;SDS011;45001;52.218;5.154;2022-07-23T02:41:45;0.90;;;0.60;;
58310;SDS011;45001;52.218;5.154;2022-07-23T02:44:11;1.27;;;0.80;;
58310;SDS011;45001;52.218;5.154;2022-07-23T02:46:36;0.93;;;0.70;;
58310;SDS011;45001;52.218;5.154;2022-07-23T02:49:01;2.13;;;0.80;;
58310;SDS011;45001;52.218;5.154;2022-07-23T02:51:29;1.90;;;0.80;;
58310;SDS011;45001;52.218;5.154;2022-07-23T02:53:54;1.55;;;0.77;;
58310;SDS011;45001;52.218;5.154;2022-07-23T02:56:20;1.73;;;0.95;;
58310;SDS011;45001;52.218;5.154;2022-07-23T02:58:45;2.13;;;0.90;;
58310;SDS011;45001;52.218;5.154;2022-07-23T03:01:10;1.85;;;0.88;;
58310;SDS011;45001;52.218;5.154;2022-07-23T03:03:35;1.45;;;0.70;;
58310;SDS011;45001;52.218;5.154;2022-07-23T03:06:01;1.25;;;0.80;;
58310;SDS011;45001;52.218;5.154;2022-07-23T03:08:26;2.05;;;0.80;;
58310;SDS011;45001;52.218;5.154;2022-07-23T03:10:51;2.15;;;0.80;;
58310;SDS011;45001;52.218;5.154;2022-07-23T03:13:17;1.27;;;0.80;;
58310;SDS011;45001;52.218;5.154;2022-07-23T03:15:42;0.98;;;0.70;;
58310;SDS011;45001;52.218;5.154;2022-07-23T03:18:07;2.13;;;0.90;;
58310;SDS011;45001;52.218;5.154;2022-07-23T03:20:32;1.95;;;0.75;;
58310;SDS011;45001;52.218;5.154;2022-07-23T03:22:58;2.30;;;0.90;;
58310;SDS011;45001;52.218;5.154;2022-07-23T03:25:23;1.65;;;1.10;;
58310;SDS011;45001;52.218;5.154;2022-07-23T03:27:48;1.98;;;0.75;;
58310;SDS011;45001;52.218;5.154;2022-07-23T03:30:14;1.75;;;0.70;;
58310;SDS011;45001;52.218;5.154;2022-07-23T03:32:39;1.63;;;0.70;;
58310;SDS011;45001;52.218;5.154;2022-07-23T03:35:05;2.17;;;0.82;;
58310;SDS011;45001;52.218;5.154;2022-07-23T03:37:30;0.90;;;0.70;;
58310;SDS011;45001;52.218;5.154;2022-07-23T03:39:55;1.75;;;0.90;;
58310;SDS011;45001;52.218;5.154;2022-07-23T03:42:21;1.97;;;1.00;;
58310;SDS011;45001;52.218;5.154;2022-07-23T03:44:46;2.13;;;0.80;;
58310;SDS011;45001;52.218;5.154;2022-07-23T03:47:11;2.05;;;0.90;;
58310;SDS011;45001;52.218;5.154;2022-07-23T03:49:37;1.00;;;0.80;;
58310;SDS011;45001;52.218;5.154;2022-07-23T03:52:02;2.08;;;0.80;;
58310;SDS011;45001;52.218;5.154;2022-07-23T03:54:28;1.17;;;0.80;;
58310;SDS011;45001;52.218;5.154;2022-07-23T03:56:54;1.75;;;0.90;;
58310;SDS011;45001;52.218;5.154;2022-07-23T03:59:19;1.00;;;0.73;;
58310;SDS011;45001;52.218;5.154;2022-07-23T04:01:44;1.40;;;0.70;;
58310;SDS011;45001;52.218;5.154;2022-07-23T04:04:10;1.00;;;0.75;;
58310;SDS011;45001;52.218;5.154;2022-07-23T04:06:35;1.60;;;0.93;;
58310;SDS011;45001;52.218;5.154;2022-07-23T04:09:01;2.13;;;0.90;;
58310;SDS011;45001;52.218;5.154;2022-07-23T04:11:27;1.45;;;0.77;;
58310;SDS011;45001;52.218;5.154;2022-07-23T04:13:52;1.60;;;1.00;;
58310;SDS011;45001;52.218;5.154;2022-07-23T04:16:17;1.90;;;0.98;;
58310;SDS011;45001;52.218;5.154;2022-07-23T04:18:43;1.60;;;0.90;;
58310;SDS011;45001;52.218;5.154;2022-07-23T04:21:08;1.40;;;0.85;;
58310;SDS011;45001;52.218;5.154;2022-07-23T04:23:34;1.60;;;0.70;;
58310;SDS011;45001;52.218;5.154;2022-07-23T04:25:59;1.70;;;0.90;;
58310;SDS011;45001;52.218;5.154;2022-07-23T04:28:24;1.85;;;1.05;;
58310;SDS011;45001;52.218;5.154;2022-07-23T04:30:50;1.30;;;0.93;;
58310;SDS011;45001;52.218;5.154;2022-07-23T04:33:15;2.10;;;0.80;;
58310;SDS011;45001;52.218;5.154;2022-07-23T04:35:40;1.88;;;0.80;;
58310;SDS011;45001;52.218;5.154;2022-07-23T04:38:06;1.80;;;1.10;;
58310;SDS011;45001;52.218;5.154;2022-07-23T04:40:31;1.80;;;0.90;;
58310;SDS011;45001;52.218;5.154;2022-07-23T04:42:56;1.58;;;0.80;;
58310;SDS011;45001;52.218;5.154;2022-07-23T04:45:22;0.90;;;0.68;;
58310;SDS011;45001;52.218;5.154;2022-07-23T04:47:50;1.38;;;0.70;;
58310;SDS011;45001;52.218;5.154;2022-07-23T04:50:15;1.25;;;0.80;;
58310;SDS011;45001;52.218;5.154;2022-07-23T04:52:44;1.60;;;0.85;;
58310;SDS011;45001;52.218;5.154;2022-07-23T04:55:09;1.55;;;0.80;;
58310;SDS011;45001;52.218;5.154;2022-07-23T04:57:35;1.13;;;0.60;;
58310;SDS011;45001;52.218;5.154;2022-07-23T05:00:01;0.95;;;0.60;;
58310;SDS011;45001;52.218;5.154;2022-07-23T05:02:26;2.25;;;0.80;;
58310;SDS011;45001;52.218;5.154;2022-07-23T05:04:52;1.67;;;0.90;;
58310;SDS011;45001;52.218;5.154;2022-07-23T05:07:17;1.30;;;0.77;;
58310;SDS011;45001;52.218;5.154;2022-07-23T05:09:42;1.38;;;0.82;;
58310;SDS011;45001;52.218;5.154;2022-07-23T05:12:08;1.13;;;0.80;;
58310;SDS011;45001;52.218;5.154;2022-07-23T05:14:33;1.73;;;0.80;;
58310;SDS011;45001;52.218;5.154;2022-07-23T05:16:58;1.20;;;0.80;;
58310;SDS011;45001;52.218;5.154;2022-07-23T05:19:23;1.92;;;0.90;;
58310;SDS011;45001;52.218;5.154;2022-07-23T05:21:49;1.42;;;0.63;;
58310;SDS011;45001;52.218;5.154;2022-07-23T05:24:14;1.35;;;0.80;;
58310;SDS011;45001;52.218;5.154;2022-07-23T05:26:39;1.52;;;0.75;;
58310;SDS011;45001;52.218;5.154;2022-07-23T05:29:05;2.55;;;0.80;;
58310;SDS011;45001;52.218;5.154;2022-07-23T05:31:30;1.23;;;0.70;;
58310;SDS011;45001;52.218;5.154;2022-07-23T05:33:55;1.20;;;0.70;;
58310;SDS011;45001;52.218;5.154;2022-07-23T05:36:20;1.20;;;0.60;;
58310;SDS011;45001;52.218;5.154;2022-07-23T05:38:46;1.35;;;0.77;;
58310;SDS011;45001;52.218;5.154;2022-07-23T05:41:11;1.00;;;0.70;;
58310;SDS011;45001;52.218;5.154;2022-07-23T05:43:36;1.42;;;0.70;;
58310;SDS011;45001;52.218;5.154;2022-07-23T05:46:02;1.45;;;0.90;;
58310;SDS011;45001;52.218;5.154;2022-07-23T05:48:27;1.35;;;0.90;;
58310;SDS011;45001;52.218;5.154;2022-07-23T05:50:52;1.65;;;0.70;;
58310;SDS011;45001;52.218;5.154;2022-07-23T05:53:18;2.85;;;0.90;;
58310;SDS011;45001;52.218;5.154;2022-07-23T05:55:43;1.13;;;0.70;;
58310;SDS011;45001;52.218;5.154;2022-07-23T05:58:09;1.42;;;0.60;;
58310;SDS011;45001;52.218;5.154;2022-07-23T06:00:34;1.17;;;0.68;;
58310;SDS011;45001;52.218;5.154;2022-07-23T06:02:59;1.00;;;0.70;;
58310;SDS011;45001;52.218;5.154;2022-07-23T06:05:25;1.60;;;0.77;;
58310;SDS011;45001;52.218;5.154;2022-07-23T06:07:50;0.88;;;0.52;;
58310;SDS011;45001;52.218;5.154;2022-07-23T06:10:16;0.80;;;0.60;;
58310;SDS011;45001;52.218;5.154;2022-07-23T06:12:41;1.52;;;0.70;;
58310;SDS011;45001;52.218;5.154;2022-07-23T06:15:07;1.00;;;0.70;;
58310;SDS011;45001;52.218;5.154;2022-07-23T06:17:33;1.77;;;0.65;;
58310;SDS011;45001;52.218;5.154;2022-07-23T06:19:58;1.13;;;0.60;;
58310;SDS011;45001;52.218;5.154;2022-07-23T06:22:23;1.52;;;0.80;;
58310;SDS011;45001;52.218;5.154;2022-07-23T06:24:49;1.20;;;0.70;;
58310;SDS011;45001;52.218;5.154;2022-07-23T06:27:15;1.23;;;0.63;;
58310;SDS011;45001;52.218;5.154;2022-07-23T06:29:41;1.38;;;0.80;;
58310;SDS011;45001;52.218;5.154;2022-07-23T06:32:07;1.55;;;0.75;;
58310;SDS011;45001;52.218;5.154;2022-07-23T06:34:33;1.48;;;0.70;;
58310;SDS011;45001;52.218;5.154;2022-07-23T06:36:58;1.90;;;1.08;;
58310;SDS011;45001;52.218;5.154;2022-07-23T06:39:24;4.95;;;1.10;;
58310;SDS011;45001;52.218;5.154;2022-07-23T06:41:49;3.45;;;0.90;;
58310;SDS011;45001;52.218;5.154;2022-07-23T06:44:15;4.20;;;0.75;;
58310;SDS011;45001;52.218;5.154;2022-07-23T06:46:40;2.30;;;0.60;;
58310;SDS011;45001;52.218;5.154;2022-07-23T06:49:06;3.03;;;0.93;;
58310;SDS011;45001;52.218;5.154;2022-07-23T06:51:32;1.33;;;0.63;;
58310;SDS011;45001;52.218;5.154;2022-07-23T06:53:57;2.13;;;1.10;;
58310;SDS011;45001;52.218;5.154;2022-07-23T06:56:23;1.33;;;0.70;;
58310;SDS011;45001;52.218;5.154;2022-07-23T06:58:48;1.75;;;0.88;;
58310;SDS011;45001;52.218;5.154;2022-07-23T07:01:14;1.60;;;0.70;;
58310;SDS011;45001;52.218;5.154;2022-07-23T07:03:39;1.13;;;0.70;;
58310;SDS011;45001;52.218;5.154;2022-07-23T07:06:04;1.52;;;0.70;;
58310;SDS011;45001;52.218;5.154;2022-07-23T07:08:30;3.03;;;0.90;;
58310;SDS011;45001;52.218;5.154;2022-07-23T07:10:55;2.08;;;0.70;;
58310;SDS011;45001;52.218;5.154;2022-07-23T07:13:20;3.22;;;0.80;;
58310;SDS011;45001;52.218;5.154;2022-07-23T07:15:45;2.13;;;1.02;;
58310;SDS011;45001;52.218;5.154;2022-07-23T07:18:11;1.92;;;0.73;;
58310;SDS011;45001;52.218;5.154;2022-07-23T07:20:36;2.55;;;0.70;;
58310;SDS011;45001;52.218;5.154;2022-07-23T07:23:01;2.33;;;0.90;;
58310;SDS011;45001;52.218;5.154;2022-07-23T07:25:27;1.50;;;0.80;;
58310;SDS011;45001;52.218;5.154;2022-07-23T07:27:52;1.65;;;0.80;;
58310;SDS011;45001;52.218;5.154;2022-07-23T07:30:18;2.28;;;0.80;;
58310;SDS011;45001;52.218;5.154;2022-07-23T07:32:43;1.45;;;0.80;;
58310;SDS011;45001;52.218;5.154;2022-07-23T07:35:09;1.00;;;0.68;;
58310;SDS011;45001;52.218;5.154;2022-07-23T07:37:34;3.88;;;0.90;;
58310;SDS011;45001;52.218;5.154;2022-07-23T07:40:00;2.35;;;0.80;;
58310;SDS011;45001;52.218;5.154;2022-07-23T07:42:25;3.15;;;0.80;;
58310;SDS011;45001;52.218;5.154;2022-07-23T07:44:51;2.00;;;0.73;;
58310;SDS011;45001;52.218;5.154;2022-07-23T07:47:16;2.00;;;0.70;;
58310;SDS011;45001;52.218;5.154;2022-07-23T07:49:42;3.47;;;1.08;;
58310;SDS011;45001;52.218;5.154;2022-07-23T07:52:08;1.77;;;0.70;;
58310;SDS011;45001;52.218;5.154;2022-07-23T07:54:33;2.13;;;0.90;;
58310;SDS011;45001;52.218;5.154;2022-07-23T07:56:58;1.70;;;0.75;;
58310;SDS011;45001;52.218;5.154;2022-07-23T07:59:24;1.77;;;1.08;;
58310;SDS011;45001;52.218;5.154;2022-07-23T08:01:49;3.63;;;0.70;;
58310;SDS011;45001;52.218;5.154;2022-07-23T08:04:14;1.40;;;0.60;;
58310;SDS011;45001;52.218;5.154;2022-07-23T08:06:39;1.90;;;0.73;;
58310;SDS011;45001;52.218;5.154;2022-07-23T08:09:05;2.25;;;0.77;;
58310;SDS011;45001;52.218;5.154;2022-07-23T08:11:30;2.22;;;0.82;;
58310;SDS011;45001;52.218;5.154;2022-07-23T08:13:55;1.80;;;0.57;;
58310;SDS011;45001;52.218;5.154;2022-07-23T08:16:21;1.77;;;0.60;;
58310;SDS011;45001;52.218;5.154;2022-07-23T08:18:46;1.17;;;0.70;;
58310;SDS011;45001;52.218;5.154;2022-07-23T08:21:11;4.45;;;0.90;;
58310;SDS011;45001;52.218;5.154;2022-07-23T08:23:37;2.10;;;0.60;;
58310;SDS011;45001;52.218;5.154;2022-07-23T08:26:02;1.60;;;0.60;;
58310;SDS011;45001;52.218;5.154;2022-07-23T08:28:27;1.08;;;0.60;;
58310;SDS011;45001;52.218;5.154;2022-07-23T08:30:53;0.95;;;0.60;;
58310;SDS011;45001;52.218;5.154;2022-07-23T08:33:18;1.45;;;0.65;;
58310;SDS011;45001;52.218;5.154;2022-07-23T08:35:48;1.95;;;0.70;;
58310;SDS011;45001;52.218;5.154;2022-07-23T08:38:15;1.30;;;0.68;;
58310;SDS011;45001;52.218;5.154;2022-07-23T08:40:43;3.10;;;0.98;;
58310;SDS011;45001;52.218;5.154;2022-07-23T08:43:15;1.75;;;0.68;;
58310;SDS011;45001;52.218;5.154;2022-07-23T08:45:43;2.17;;;0.80;;
58310;SDS011;45001;52.218;5.154;2022-07-23T08:48:14;5.72;;;0.90;;
58310;SDS011;45001;52.218;5.154;2022-07-23T08:50:42;7.85;;;1.30;;
58310;SDS011;45001;52.218;5.154;2022-07-23T08:53:09;6.32;;;0.75;;
58310;SDS011;45001;52.218;5.154;2022-07-23T08:55:36;2.92;;;0.90;;
58310;SDS011;45001;52.218;5.154;2022-07-23T08:58:01;2.08;;;0.90;;
58310;SDS011;45001;52.218;5.154;2022-07-23T09:00:28;3.03;;;1.20;;
58310;SDS011;45001;52.218;5.154;2022-07-23T09:02:54;2.05;;;1.00;;
58310;SDS011;45001;52.218;5.154;2022-07-23T09:05:20;2.63;;;0.98;;
58310;SDS011;45001;52.218;5.154;2022-07-23T09:13:23;5.85;;;0.90;;
58310;SDS011;45001;52.218;5.154;2022-07-23T09:18:42;1.63;;;0.70;;
58310;SDS011;45001;52.218;5.154;2022-07-23T09:31:53;4.22;;;0.80;;
58310;SDS011;45001;52.218;5.154;2022-07-23T09:34:21;4.60;;;0.98;;
58310;SDS011;45001;52.218;5.154;2022-07-23T09:36:50;7.30;;;1.20;;
58310;SDS011;45001;52.218;5.154;2022-07-23T09:39:29;6.55;;;1.30;;
58310;SDS011;45001;52.218;5.154;2022-07-23T09:41:56;12.93;;;1.73;;
58310;SDS011;45001;52.218;5.154;2022-07-23T09:44:23;12.90;;;2.72;;
58310;SDS011;45001;52.218;5.154;2022-07-23T09:46:48;29.63;;;5.38;;
58310;SDS011;45001;52.218;5.154;2022-07-23T09:49:19;35.00;;;6.97;;
58310;SDS011;45001;52.218;5.154;2022-07-23T09:51:50;36.25;;;7.05;;
58310;SDS011;45001;52.218;5.154;2022-07-23T09:54:30;31.10;;;6.85;;
58310;SDS011;45001;52.218;5.154;2022-07-23T09:57:02;34.63;;;7.97;;
58310;SDS011;45001;52.218;5.154;2022-07-23T09:59:33;26.38;;;5.90;;
58310;SDS011;45001;52.218;5.154;2022-07-23T10:02:01;19.58;;;4.05;;
58310;SDS011;45001;52.218;5.154;2022-07-23T10:04:27;21.27;;;5.50;;
58310;SDS011;45001;52.218;5.154;2022-07-23T10:06:55;28.88;;;5.97;;
58310;SDS011;45001;52.218;5.154;2022-07-23T10:09:25;24.75;;;4.95;;
58310;SDS011;45001;52.218;5.154;2022-07-23T10:11:57;21.52;;;4.63;;
58310;SDS011;45001;52.218;5.154;2022-07-23T10:14:36;17.70;;;3.60;;
58310;SDS011;45001;52.218;5.154;2022-07-23T10:17:03;15.18;;;4.10;;
58310;SDS011;45001;52.218;5.154;2022-07-23T10:19:30;14.10;;;4.10;;
58310;SDS011;45001;52.218;5.154;2022-07-23T10:22:42;12.73;;;3.30;;
58310;SDS011;45001;52.218;5.154;2022-07-23T10:30:20;14.27;;;2.30;;
58310;SDS011;45001;52.218;5.154;2022-07-23T10:33:15;13.23;;;3.92;;
58310;SDS011;45001;52.218;5.154;2022-07-23T10:35:55;11.68;;;2.20;;
58310;SDS011;45001;52.218;5.154;2022-07-23T10:41:35;50.95;;;4.40;;
58310;SDS011;45001;52.218;5.154;2022-07-23T10:44:11;30.95;;;3.75;;
58310;SDS011;45001;52.218;5.154;2022-07-23T10:46:53;24.50;;;3.20;;
58310;SDS011;45001;52.218;5.154;2022-07-23T10:49:39;22.23;;;2.75;;
58310;SDS011;45001;52.218;5.154;2022-07-23T10:54:52;15.38;;;2.42;;
58310;SDS011;45001;52.218;5.154;2022-07-23T10:57:23;17.50;;;3.10;;
58310;SDS011;45001;52.218;5.154;2022-07-23T11:02:34;11.50;;;2.63;;
58310;SDS011;45001;52.218;5.154;2022-07-23T11:05:02;7.10;;;2.10;;
58310;SDS011;45001;52.218;5.154;2022-07-23T11:07:31;11.80;;;2.25;;
58310;SDS011;45001;52.218;5.154;2022-07-23T11:09:56;12.00;;;2.47;;
58310;SDS011;45001;52.218;5.154;2022-07-23T11:17:24;9.73;;;2.67;;
58310;SDS011;45001;52.218;5.154;2022-07-23T11:25:12;10.43;;;2.22;;
58310;SDS011;45001;52.218;5.154;2022-07-23T11:27:53;7.88;;;2.15;;
58310;SDS011;45001;52.218;5.154;2022-07-23T11:32:53;9.15;;;1.65;;
58310;SDS011;45001;52.218;5.154;2022-07-23T11:35:28;8.90;;;1.85;;
58310;SDS011;45001;52.218;5.154;2022-07-23T11:38:30;4.82;;;1.52;;
58310;SDS011;45001;52.218;5.154;2022-07-23T11:40:48;7.25;;;1.88;;
58310;SDS011;45001;52.218;5.154;2022-07-23T11:43:16;8.30;;;1.73;;
58310;SDS011;45001;52.218;5.154;2022-07-23T11:45:43;4.60;;;1.50;;
58310;SDS011;45001;52.218;5.154;2022-07-23T11:48:17;7.70;;;1.73;;
58310;SDS011;45001;52.218;5.154;2022-07-23T11:50:44;4.85;;;1.40;;
58310;SDS011;45001;52.218;5.154;2022-07-23T11:53:10;7.63;;;1.83;;
58310;SDS011;45001;52.218;5.154;2022-07-23T11:55:36;5.82;;;1.73;;
58310;SDS011;45001;52.218;5.154;2022-07-23T11:58:02;4.88;;;1.42;;
58310;SDS011;45001;52.218;5.154;2022-07-23T12:00:29;5.50;;;1.40;;
58310;SDS011;45001;52.218;5.154;2022-07-23T12:02:56;6.55;;;1.77;;
58310;SDS011;45001;52.218;5.154;2022-07-23T12:05:28;4.78;;;1.40;;
58310;SDS011;45001;52.218;5.154;2022-07-23T12:07:59;6.80;;;2.03;;
58310;SDS011;45001;52.218;5.154;2022-07-23T12:10:26;5.47;;;1.60;;
58310;SDS011;45001;52.218;5.154;2022-07-23T12:13:04;3.78;;;1.25;;
58310;SDS011;45001;52.218;5.154;2022-07-23T12:15:32;3.58;;;1.23;;
58310;SDS011;45001;52.218;5.154;2022-07-23T12:18:04;4.53;;;1.30;;
58310;SDS011;45001;52.218;5.154;2022-07-23T12:20:32;3.58;;;1.23;;
58310;SDS011;45001;52.218;5.154;2022-07-23T12:23:02;5.35;;;1.38;;
58310;SDS011;45001;52.218;5.154;2022-07-23T12:25:30;2.25;;;1.15;;
58310;SDS011;45001;52.218;5.154;2022-07-23T12:33:02;4.78;;;1.63;;
58310;SDS011;45001;52.218;5.154;2022-07-23T12:35:32;3.20;;;1.38;;
58310;SDS011;45001;52.218;5.154;2022-07-23T12:38:10;2.80;;;1.40;;
58310;SDS011;45001;52.218;5.154;2022-07-23T12:40:47;3.30;;;1.17;;
58310;SDS011;45001;52.218;5.154;2022-07-23T12:43:23;2.63;;;1.40;;
58310;SDS011;45001;52.218;5.154;2022-07-23T12:48:30;4.55;;;1.50;;
58310;SDS011;45001;52.218;5.154;2022-07-23T12:51:00;5.00;;;1.50;;
58310;SDS011;45001;52.218;5.154;2022-07-23T12:53:30;4.13;;;1.50;;
58310;SDS011;45001;52.218;5.154;2022-07-23T12:58:23;2.45;;;1.30;;
58310;SDS011;45001;52.218;5.154;2022-07-23T13:01:04;2.67;;;1.38;;
58310;SDS011;45001;52.218;5.154;2022-07-23T13:03:34;3.25;;;1.40;;
58310;SDS011;45001;52.218;5.154;2022-07-23T13:06:04;4.50;;;1.35;;
58310;SDS011;45001;52.218;5.154;2022-07-23T13:08:32;2.95;;;1.30;;
58310;SDS011;45001;52.218;5.154;2022-07-23T13:10:58;3.88;;;1.40;;
58310;SDS011;45001;52.218;5.154;2022-07-23T13:13:25;4.80;;;1.23;;
58310;SDS011;45001;52.218;5.154;2022-07-23T13:15:52;2.55;;;1.40;;
58310;SDS011;45001;52.218;5.154;2022-07-23T13:18:18;2.50;;;1.40;;
58310;SDS011;45001;52.218;5.154;2022-07-23T13:20:44;2.55;;;1.50;;
58310;SDS011;45001;52.218;5.154;2022-07-23T13:23:10;3.00;;;1.38;;
58310;SDS011;45001;52.218;5.154;2022-07-23T13:25:36;2.30;;;1.60;;
58310;SDS011;45001;52.218;5.154;2022-07-23T13:28:02;3.45;;;1.33;;
58310;SDS011;45001;52.218;5.154;2022-07-23T13:30:27;4.60;;;1.52;;
58310;SDS011;45001;52.218;5.154;2022-07-23T13:32:53;4.05;;;1.55;;
58310;SDS011;45001;52.218;5.154;2022-07-23T13:35:18;3.67;;;1.17;;
58310;SDS011;45001;52.218;5.154;2022-07-23T13:37:43;3.22;;;1.67;;
58310;SDS011;45001;52.218;5.154;2022-07-23T13:40:09;3.10;;;1.58;;
58310;SDS011;45001;52.218;5.154;2022-07-23T13:42:35;3.55;;;1.45;;
58310;SDS011;45001;52.218;5.154;2022-07-23T13:45:01;3.45;;;1.70;;
58310;SDS011;45001;52.218;5.154;2022-07-23T13:47:27;4.03;;;1.75;;
58310;SDS011;45001;52.218;5.154;2022-07-23T13:49:52;3.25;;;1.70;;
58310;SDS011;45001;52.218;5.154;2022-07-23T13:52:17;3.80;;;1.70;;
58310;SDS011;45001;52.218;5.154;2022-07-23T13:54:42;6.70;;;1.65;;
58310;SDS011;45001;52.218;5.154;2022-07-23T13:57:08;4.93;;;1.55;;
58310;SDS011;45001;52.218;5.154;2022-07-23T13:59:34;2.90;;;1.25;;
58310;SDS011;45001;52.218;5.154;2022-07-23T14:02:01;3.75;;;1.70;;
58310;SDS011;45001;52.218;5.154;2022-07-23T14:04:27;3.53;;;1.55;;
58310;SDS011;45001;52.218;5.154;2022-07-23T14:06:52;3.97;;;1.45;;
58310;SDS011;45001;52.218;5.154;2022-07-23T14:09:18;4.20;;;1.80;;
58310;SDS011;45001;52.218;5.154;2022-07-23T14:11:43;4.22;;;1.80;;
58310;SDS011;45001;52.218;5.154;2022-07-23T14:14:08;5.03;;;1.75;;
58310;SDS011;45001;52.218;5.154;2022-07-23T14:16:33;4.25;;;1.60;;
58310;SDS011;45001;52.218;5.154;2022-07-23T14:18:59;5.63;;;1.90;;
58310;SDS011;45001;52.218;5.154;2022-07-23T14:21:24;4.32;;;2.00;;
58310;SDS011;45001;52.218;5.154;2022-07-23T14:23:49;3.38;;;1.40;;
58310;SDS011;45001;52.218;5.154;2022-07-23T14:26:15;5.47;;;1.93;;
58310;SDS011;45001;52.218;5.154;2022-07-23T14:28:40;4.28;;;1.95;;
58310;SDS011;45001;52.218;5.154;2022-07-23T14:31:05;4.68;;;1.65;;
58310;SDS011;45001;52.218;5.154;2022-07-23T14:33:31;4.63;;;1.70;;
58310;SDS011;45001;52.218;5.154;2022-07-23T14:35:56;3.67;;;1.55;;
58310;SDS011;45001;52.218;5.154;2022-07-23T14:38:23;3.50;;;1.48;;
58310;SDS011;45001;52.218;5.154;2022-07-23T14:40:48;3.08;;;1.58;;
58310;SDS011;45001;52.218;5.154;2022-07-23T14:43:13;2.73;;;1.67;;
58310;SDS011;45001;52.218;5.154;2022-07-23T14:45:39;3.28;;;1.50;;
58310;SDS011;45001;52.218;5.154;2022-07-23T14:48:04;3.83;;;1.65;;
58310;SDS011;45001;52.218;5.154;2022-07-23T14:50:29;3.63;;;1.60;;
58310;SDS011;45001;52.218;5.154;2022-07-23T14:52:55;2.83;;;1.80;;
58310;SDS011;45001;52.218;5.154;2022-07-23T14:55:20;2.80;;;1.48;;
58310;SDS011;45001;52.218;5.154;2022-07-23T14:57:46;2.83;;;1.60;;
58310;SDS011;45001;52.218;5.154;2022-07-23T15:00:11;2.28;;;1.40;;
58310;SDS011;45001;52.218;5.154;2022-07-23T15:02:37;3.58;;;1.33;;
58310;SDS011;45001;52.218;5.154;2022-07-23T15:05:02;3.75;;;1.63;;
58310;SDS011;45001;52.218;5.154;2022-07-23T15:07:28;4.10;;;1.73;;
58310;SDS011;45001;52.218;5.154;2022-07-23T15:09:55;3.08;;;1.60;;
58310;SDS011;45001;52.218;5.154;2022-07-23T15:12:20;3.03;;;1.40;;
58310;SDS011;45001;52.218;5.154;2022-07-23T15:14:46;4.78;;;1.77;;
58310;SDS011;45001;52.218;5.154;2022-07-23T15:17:11;3.47;;;1.70;;
58310;SDS011;45001;52.218;5.154;2022-07-23T15:19:36;2.40;;;1.52;;
58310;SDS011;45001;52.218;5.154;2022-07-23T15:22:02;3.08;;;1.67;;
58310;SDS011;45001;52.218;5.154;2022-07-23T15:24:29;4.65;;;1.60;;
58310;SDS011;45001;52.218;5.154;2022-07-23T15:26:54;3.42;;;1.50;;
58310;SDS011;45001;52.218;5.154;2022-07-23T15:29:20;2.60;;;1.83;;
58310;SDS011;45001;52.218;5.154;2022-07-23T15:31:45;3.05;;;1.83;;
58310;SDS011;45001;52.218;5.154;2022-07-23T15:34:11;3.70;;;1.83;;
58310;SDS011;45001;52.218;5.154;2022-07-23T15:36:36;3.42;;;1.73;;
58310;SDS011;45001;52.218;5.154;2022-07-23T15:39:02;2.22;;;1.40;;